createdAt,value
2022-08-25T00:02:00.790Z,20.60
2022-08-25T00:04:55.171Z,20.60
2022-08-25T00:07:31.292Z,20.60
2022-08-25T00:09:58.143Z,20.60
2022-08-25T00:12:26.205Z,20.60
2022-08-25T00:14:53.259Z,20.50
2022-08-25T00:17:20.138Z,20.60
2022-08-25T00:19:47.037Z,20.60
2022-08-25T00:22:13.906Z,20.60
2022-08-25T00:24:40.827Z,20.60
2022-08-25T00:27:07.813Z,20.50
2022-08-25T00:29:38.042Z,20.60
2022-08-25T00:32:05.823Z,20.60
2022-08-25T00:34:36.183Z,20.50
2022-08-25T00:37:07.346Z,20.50
2022-08-25T00:39:34.422Z,20.60
2022-08-25T00:42:01.413Z,20.50
2022-08-25T00:44:30.982Z,20.50
2022-08-25T00:47:01.081Z,20.50
2022-08-25T00:49:38.530Z,20.40
2022-08-25T00:52:10.782Z,20.40
2022-08-25T00:55:07.817Z,20.30
2022-08-25T00:57:41.940Z,20.20
2022-08-25T01:00:16.386Z,20.20
2022-08-25T01:02:43.730Z,20.20
2022-08-25T01:05:10.939Z,20.20
2022-08-25T01:07:38.595Z,20.20
2022-08-25T01:10:07.833Z,20.20
2022-08-25T01:12:36.500Z,20.20
2022-08-25T01:15:05.478Z,20.20
2022-08-25T01:17:53.128Z,20.20
2022-08-25T01:20:23.570Z,20.20
2022-08-25T01:22:56.619Z,20.20
2022-08-25T01:25:42.384Z,20.20
2022-08-25T01:28:09.530Z,20.10
2022-08-25T01:30:36.731Z,20.10
2022-08-25T01:33:05.698Z,20.10
2022-08-25T01:35:33.217Z,20.10
2022-08-25T01:38:04.704Z,20.10
2022-08-25T01:40:32.418Z,20.00
2022-08-25T01:43:07.086Z,20.00
2022-08-25T01:45:34.995Z,20.10
2022-08-25T01:48:02.903Z,20.00
2022-08-25T01:50:29.839Z,20.10
2022-08-25T01:52:59.939Z,20.00
2022-08-25T01:55:27.121Z,20.00
2022-08-25T01:57:54.365Z,20.10
2022-08-25T02:00:23.707Z,20.10
2022-08-25T02:02:54.263Z,20.00
2022-08-25T02:05:23.815Z,20.00
2022-08-25T02:07:50.959Z,20.00
2022-08-25T02:10:17.803Z,20.00
2022-08-25T02:12:45.024Z,19.90
2022-08-25T02:15:12.019Z,19.90
2022-08-25T02:17:39.446Z,20.00
2022-08-25T02:20:09.009Z,20.00
2022-08-25T02:22:35.963Z,20.00
2022-08-25T02:25:03.503Z,19.90
2022-08-25T02:27:30.627Z,19.90
2022-08-25T02:29:57.455Z,19.90
2022-08-25T02:32:24.342Z,19.80
2022-08-25T02:34:51.283Z,19.90
2022-08-25T02:37:18.204Z,19.90
2022-08-25T02:39:45.147Z,19.90
2022-08-25T02:42:12.295Z,19.90
2022-08-25T02:44:39.224Z,19.80
2022-08-25T02:47:06.070Z,19.90
2022-08-25T02:49:33.125Z,19.80
2022-08-25T02:52:00.549Z,19.80
2022-08-25T02:54:28.678Z,19.70
2022-08-25T02:56:55.587Z,19.80
2022-08-25T02:59:22.492Z,19.80
2022-08-25T03:01:49.434Z,19.70
2022-08-25T03:04:16.475Z,19.80
2022-08-25T03:06:43.586Z,19.70
2022-08-25T03:09:10.589Z,19.80
2022-08-25T03:11:38.361Z,19.70
2022-08-25T03:14:09.779Z,19.70
2022-08-25T03:16:37.445Z,19.60
2022-08-25T03:19:05.581Z,19.60
2022-08-25T03:21:32.855Z,19.60
2022-08-25T03:24:00.551Z,19.60
2022-08-25T03:26:45.866Z,19.50
2022-08-25T03:29:13.861Z,19.60
2022-08-25T03:31:42.941Z,19.50
2022-08-25T03:34:09.895Z,19.60
2022-08-25T03:36:36.682Z,19.60
2022-08-25T03:39:04.499Z,19.60
2022-08-25T03:41:32.771Z,19.70
2022-08-25T03:44:00.350Z,19.70
2022-08-25T03:46:37.275Z,19.70
2022-08-25T03:49:07.040Z,19.70
2022-08-25T03:51:36.583Z,19.70
2022-08-25T03:54:04.893Z,19.70
2022-08-25T03:56:32.255Z,19.70
2022-08-25T03:58:59.789Z,19.60
2022-08-25T04:01:26.813Z,19.60
2022-08-25T04:03:54.306Z,19.50
2022-08-25T04:06:21.854Z,19.50
2022-08-25T04:08:48.886Z,19.50
2022-08-25T04:11:22.886Z,19.40
2022-08-25T04:13:50.673Z,19.30
2022-08-25T04:16:20.335Z,19.30
2022-08-25T04:18:48.694Z,19.40
2022-08-25T04:21:16.633Z,19.30
2022-08-25T04:23:47.176Z,19.30
2022-08-25T04:26:44.861Z,19.30
2022-08-25T04:29:14.466Z,19.20
2022-08-25T04:31:44.137Z,19.20
2022-08-25T04:34:28.842Z,19.30
2022-08-25T04:37:00.759Z,19.40
2022-08-25T04:39:27.691Z,19.30
2022-08-25T04:41:55.264Z,19.20
2022-08-25T04:44:22.193Z,19.20
2022-08-25T04:46:49.979Z,19.20
2022-08-25T04:49:16.909Z,19.20
2022-08-25T04:54:52.357Z,19.10
2022-08-25T04:57:19.513Z,19.10
2022-08-25T04:59:46.331Z,19.10
2022-08-25T05:02:13.222Z,19.10
2022-08-25T05:04:40.268Z,19.10
2022-08-25T05:07:07.225Z,19.00
2022-08-25T05:09:34.352Z,19.00
2022-08-25T05:12:02.959Z,19.00
2022-08-25T05:14:30.453Z,19.10
2022-08-25T05:17:05.683Z,19.20
2022-08-25T05:19:32.856Z,19.30
2022-08-25T05:21:59.760Z,19.30
2022-08-25T05:24:27.945Z,19.20
2022-08-25T05:26:55.385Z,19.30
2022-08-25T05:29:22.579Z,19.30
2022-08-25T05:31:50.831Z,19.20
2022-08-25T05:34:19.445Z,19.20
2022-08-25T05:36:46.808Z,19.10
2022-08-25T05:39:13.674Z,19.20
2022-08-25T05:41:40.632Z,19.20
2022-08-25T05:44:07.720Z,19.20
2022-08-25T05:46:34.602Z,19.20
2022-08-25T05:49:01.926Z,19.10
2022-08-25T05:51:28.967Z,19.00
2022-08-25T05:53:55.836Z,18.90
2022-08-25T05:56:22.804Z,18.90
2022-08-25T05:58:50.187Z,18.80
2022-08-25T06:01:45.252Z,18.80
2022-08-25T06:04:13.823Z,18.80
2022-08-25T06:06:41.280Z,18.80
2022-08-25T06:09:09.610Z,18.80
2022-08-25T06:11:40.865Z,18.80
2022-08-25T06:14:11.511Z,18.80
2022-08-25T06:16:39.210Z,18.80
2022-08-25T06:19:07.253Z,18.90
2022-08-25T06:21:34.222Z,18.90
2022-08-25T06:24:02.147Z,19.00
2022-08-25T06:26:29.040Z,19.10
2022-08-25T06:28:55.878Z,19.10
2022-08-25T06:31:23.350Z,19.10
2022-08-25T06:33:50.657Z,19.10
2022-08-25T06:36:19.128Z,19.10
2022-08-25T06:38:47.423Z,19.20
2022-08-25T06:41:14.659Z,19.20
2022-08-25T06:43:48.065Z,19.30
2022-08-25T06:46:19.555Z,19.30
2022-08-25T06:48:46.430Z,19.40
2022-08-25T06:51:15.798Z,19.40
2022-08-25T06:53:43.898Z,19.50
2022-08-25T06:56:11.326Z,19.50
2022-08-25T06:58:39.151Z,19.60
2022-08-25T07:01:15.939Z,19.60
2022-08-25T07:03:48.061Z,19.70
2022-08-25T07:06:18.244Z,19.80
2022-08-25T07:08:46.693Z,19.90
2022-08-25T07:11:18.141Z,19.90
2022-08-25T07:13:45.527Z,20.00
2022-08-25T07:16:15.584Z,20.00
2022-08-25T07:18:44.109Z,20.00
2022-08-25T07:21:12.373Z,20.10
2022-08-25T07:23:41.270Z,20.20
2022-08-25T07:29:10.266Z,20.30
2022-08-25T07:31:37.584Z,20.40
2022-08-25T07:34:23.759Z,20.40
2022-08-25T07:36:52.907Z,20.50
2022-08-25T07:39:22.158Z,20.50
2022-08-25T07:41:52.025Z,20.60
2022-08-25T07:44:21.138Z,20.60
2022-08-25T07:46:48.673Z,20.70
2022-08-25T07:49:23.364Z,20.80
2022-08-25T07:52:05.755Z,20.80
2022-08-25T07:54:35.429Z,20.90
2022-08-25T07:57:05.935Z,20.90
2022-08-25T07:59:39.650Z,20.90
2022-08-25T08:02:09.304Z,21.00
2022-08-25T08:04:50.109Z,21.10
2022-08-25T08:07:19.192Z,21.20
2022-08-25T08:09:47.513Z,21.20
2022-08-25T08:12:15.553Z,21.20
2022-08-25T08:14:45.103Z,21.30
2022-08-25T08:17:13.736Z,21.30
2022-08-25T08:19:44.947Z,21.50
2022-08-25T08:22:15.670Z,21.60
2022-08-25T08:24:54.719Z,21.70
2022-08-25T08:27:24.526Z,21.70
2022-08-25T08:29:52.238Z,21.70
2022-08-25T08:32:19.590Z,21.80
2022-08-25T08:34:51.326Z,21.70
2022-08-25T08:37:18.845Z,21.70
2022-08-25T08:39:49.761Z,21.80
2022-08-25T08:42:47.073Z,21.80
2022-08-25T08:45:40.412Z,21.90
2022-08-25T08:48:19.267Z,22.10
2022-08-25T08:50:59.079Z,22.20
2022-08-25T08:53:34.061Z,22.30
2022-08-25T08:56:12.495Z,22.20
2022-08-25T08:58:50.111Z,22.30
2022-08-25T09:01:28.169Z,22.30
2022-08-25T09:04:08.711Z,22.40
2022-08-25T09:06:42.803Z,22.50
2022-08-25T09:09:14.838Z,22.40
2022-08-25T09:12:17.216Z,22.40
2022-08-25T09:15:12.581Z,22.50
2022-08-25T09:18:04.722Z,22.50
2022-08-25T09:20:38.839Z,22.60
2022-08-25T09:23:08.689Z,22.80
2022-08-25T09:25:59.244Z,22.90
2022-08-25T09:28:55.187Z,23.00
2022-08-25T09:31:26.442Z,22.90
2022-08-25T09:33:59.973Z,22.90
2022-08-25T09:36:27.106Z,23.00
2022-08-25T09:38:54.459Z,23.20
2022-08-25T09:41:51.110Z,23.30
2022-08-25T09:44:25.990Z,23.40
2022-08-25T09:47:18.900Z,23.60
2022-08-25T09:49:49.257Z,23.60
2022-08-25T09:52:41.717Z,23.60
2022-08-25T09:55:08.655Z,23.60
2022-08-25T09:57:47.017Z,23.70
2022-08-25T10:00:23.452Z,23.90
2022-08-25T10:03:12.397Z,23.90
2022-08-25T10:05:59.838Z,23.90
2022-08-25T10:08:39.532Z,24.00
2022-08-25T10:11:14.946Z,24.10
2022-08-25T10:13:53.083Z,24.10
2022-08-25T10:16:36.185Z,24.10
2022-08-25T10:19:24.355Z,24.10
2022-08-25T10:22:12.553Z,24.20
2022-08-25T10:27:48.262Z,24.40
2022-08-25T10:30:36.748Z,24.40
2022-08-25T10:33:22.545Z,24.40
2022-08-25T10:36:07.395Z,24.60
2022-08-25T10:38:44.314Z,24.70
2022-08-25T10:41:33.288Z,24.60
2022-08-25T10:44:31.062Z,24.60
2022-08-25T10:47:07.021Z,24.70
2022-08-25T10:49:45.278Z,24.60
2022-08-25T10:52:30.797Z,24.60
2022-08-25T10:55:16.271Z,24.80
2022-08-25T10:58:12.920Z,24.90
2022-08-25T11:00:54.637Z,24.90
2022-08-25T11:03:35.583Z,24.90
2022-08-25T11:06:22.198Z,24.80
2022-08-25T11:08:57.081Z,24.60
2022-08-25T11:11:36.171Z,24.70
2022-08-25T11:14:17.604Z,24.80
2022-08-25T11:16:54.018Z,24.80
2022-08-25T11:19:27.936Z,24.80
2022-08-25T11:22:19.363Z,24.80
2022-08-25T11:25:00.395Z,24.80
2022-08-25T11:27:45.258Z,24.90
2022-08-25T11:30:15.236Z,24.90
2022-08-25T11:32:48.206Z,25.10
2022-08-25T11:35:24.697Z,25.10
2022-08-25T11:38:02.264Z,25.20
2022-08-25T11:40:57.498Z,25.10
2022-08-25T11:43:45.659Z,25.20
2022-08-25T11:46:40.737Z,25.20
2022-08-25T11:49:24.688Z,25.30
2022-08-25T11:51:52.184Z,25.30
2022-08-25T11:54:34.685Z,25.20
2022-08-25T11:57:22.113Z,25.20
2022-08-25T12:00:15.366Z,25.20
2022-08-25T12:02:51.315Z,25.20
2022-08-25T12:05:22.057Z,25.10
2022-08-25T12:08:25.323Z,25.20
2022-08-25T12:10:52.687Z,25.30
2022-08-25T12:13:51.496Z,25.40
2022-08-25T12:16:36.545Z,25.60
2022-08-25T12:19:28.738Z,25.60
2022-08-25T12:22:54.589Z,25.60
2022-08-25T12:25:34.184Z,25.70
2022-08-25T12:28:15.972Z,25.80
2022-08-25T12:31:07.871Z,25.90
2022-08-25T12:34:12.823Z,26.00
2022-08-25T12:36:39.984Z,26.10
2022-08-25T12:39:24.354Z,26.10
2022-08-25T12:42:07.027Z,26.10
2022-08-25T12:44:47.965Z,26.00
2022-08-25T12:47:31.929Z,25.90
2022-08-25T12:50:33.478Z,26.00
2022-08-25T12:53:12.402Z,26.00
2022-08-25T12:55:46.583Z,25.80
2022-08-25T12:58:14.184Z,25.80
2022-08-25T13:00:52.701Z,25.80
2022-08-25T13:03:25.837Z,25.90
2022-08-25T13:06:05.876Z,25.90
2022-08-25T13:08:38.884Z,25.90
2022-08-25T13:11:43.219Z,26.00
2022-08-25T13:14:19.887Z,26.10
2022-08-25T13:17:00.692Z,26.20
2022-08-25T13:19:34.562Z,26.30
2022-08-25T13:22:15.900Z,26.20
2022-08-25T13:24:47.604Z,26.20
2022-08-25T13:27:26.622Z,26.20
2022-08-25T13:29:56.989Z,26.20
2022-08-25T13:32:32.470Z,26.30
2022-08-25T13:35:19.718Z,26.30
2022-08-25T13:37:47.659Z,26.30
2022-08-25T13:40:29.838Z,26.40
2022-08-25T13:43:09.126Z,26.60
2022-08-25T13:45:44.121Z,26.60
2022-08-25T13:48:22.447Z,26.70
2022-08-25T13:50:52.193Z,26.80
2022-08-25T13:53:25.941Z,26.80
2022-08-25T13:55:59.189Z,26.80
2022-08-25T13:58:39.241Z,26.70
2022-08-25T14:01:47.542Z,26.80
2022-08-25T14:04:27.893Z,26.80
2022-08-25T14:07:20.999Z,26.90
2022-08-25T14:09:58.560Z,26.80
2022-08-25T14:12:45.528Z,26.90
2022-08-25T14:15:18.219Z,26.90
2022-08-25T14:18:09.960Z,27.00
2022-08-25T14:20:47.795Z,27.00
2022-08-25T14:23:19.049Z,27.10
2022-08-25T14:25:47.337Z,27.00
2022-08-25T14:28:18.134Z,27.00
2022-08-25T14:30:52.272Z,27.00
2022-08-25T14:33:23.860Z,27.00
2022-08-25T14:35:53.642Z,27.00
2022-08-25T14:38:21.903Z,27.10
2022-08-25T14:40:50.221Z,27.10
2022-08-25T14:43:17.449Z,27.20
2022-08-25T14:45:48.132Z,27.20
2022-08-25T14:48:24.909Z,27.30
2022-08-25T14:50:53.736Z,27.40
2022-08-25T14:53:20.783Z,27.40
2022-08-25T14:55:47.902Z,27.30
2022-08-25T14:58:14.866Z,27.40
2022-08-25T15:00:44.603Z,27.40
2022-08-25T15:03:21.617Z,27.40
2022-08-25T15:05:48.595Z,27.50
2022-08-25T15:08:35.429Z,27.50
2022-08-25T15:11:02.332Z,27.60
2022-08-25T15:13:36.674Z,27.60
2022-08-25T15:16:04.467Z,27.60
2022-08-25T15:18:31.359Z,27.50
2022-08-25T15:20:58.326Z,27.50
2022-08-25T15:23:25.309Z,27.40
2022-08-25T15:25:54.934Z,27.40
2022-08-25T15:28:22.530Z,27.40
2022-08-25T15:30:50.403Z,27.30
2022-08-25T15:33:17.638Z,27.20
2022-08-25T15:35:47.202Z,27.20
2022-08-25T15:38:20.639Z,27.10
2022-08-25T15:40:48.040Z,27.10
2022-08-25T15:43:15.203Z,27.00
2022-08-25T15:45:43.500Z,27.00
2022-08-25T15:48:13.319Z,26.90
2022-08-25T15:50:40.800Z,26.90
2022-08-25T15:53:10.364Z,26.80
2022-08-25T15:55:40.299Z,26.80
2022-08-25T15:58:08.943Z,26.70
2022-08-25T16:00:37.762Z,26.70
2022-08-25T16:03:05.277Z,26.60
2022-08-25T16:05:45.167Z,26.50
2022-08-25T16:08:19.681Z,26.50
2022-08-25T16:10:47.466Z,26.40
2022-08-25T16:13:14.598Z,26.40
2022-08-25T16:15:47.918Z,26.40
2022-08-25T16:18:24.470Z,26.30
2022-08-25T16:20:52.407Z,26.30
2022-08-25T16:23:20.237Z,26.30
2022-08-25T16:25:48.195Z,26.20
2022-08-25T16:28:16.805Z,26.20
2022-08-25T16:30:52.764Z,26.10
2022-08-25T16:33:21.044Z,26.10
2022-08-25T16:35:49.314Z,26.00
2022-08-25T16:38:16.345Z,26.00
2022-08-25T16:40:43.359Z,26.00
2022-08-25T16:43:10.952Z,26.00
2022-08-25T16:45:38.227Z,25.90
2022-08-25T16:48:05.981Z,25.90
2022-08-25T16:50:34.617Z,25.90
2022-08-25T16:53:23.877Z,25.80
2022-08-25T16:56:00.813Z,25.70
2022-08-25T16:58:27.708Z,25.70
2022-08-25T17:01:09.570Z,25.70
2022-08-25T17:03:38.971Z,25.60
2022-08-25T17:06:11.084Z,25.70
2022-08-25T17:08:38.009Z,25.70
2022-08-25T17:11:11.790Z,25.60
2022-08-25T17:13:44.742Z,25.60
2022-08-25T17:16:12.953Z,25.60
2022-08-25T17:18:42.699Z,25.60
2022-08-25T17:21:12.847Z,25.50
2022-08-25T17:23:46.824Z,25.50
2022-08-25T17:26:16.761Z,25.50
2022-08-25T17:28:44.567Z,25.40
2022-08-25T17:31:12.996Z,25.40
2022-08-25T17:33:40.435Z,25.40
2022-08-25T17:36:08.914Z,25.40
2022-08-25T17:38:36.900Z,25.50
2022-08-25T17:41:09.495Z,25.30
2022-08-25T17:43:42.002Z,25.20
2022-08-25T17:46:09.692Z,25.30
2022-08-25T17:48:38.124Z,25.20
2022-08-25T17:51:11.391Z,25.20
2022-08-25T17:53:38.682Z,25.10
2022-08-25T17:56:09.523Z,25.10
2022-08-25T17:58:37.280Z,24.90
2022-08-25T18:01:05.191Z,25.00
2022-08-25T18:03:32.646Z,24.90
2022-08-25T18:06:00.348Z,24.90
2022-08-25T18:08:32.222Z,24.80
2022-08-25T18:11:03.454Z,24.80
2022-08-25T18:13:31.590Z,24.80
2022-08-25T18:15:59.091Z,24.80
2022-08-25T18:18:26.305Z,24.70
2022-08-25T18:20:53.543Z,24.70
2022-08-25T18:23:20.822Z,24.60
2022-08-25T18:25:51.130Z,24.60
2022-08-25T18:28:28.445Z,24.60
2022-08-25T18:30:55.554Z,24.60
2022-08-25T18:33:23.545Z,24.60
2022-08-25T18:35:50.417Z,24.50
2022-08-25T18:38:37.444Z,24.50
2022-08-25T18:41:06.724Z,24.40
2022-08-25T18:43:35.194Z,24.30
2022-08-25T18:46:04.710Z,24.30
2022-08-25T18:48:32.183Z,24.20
2022-08-25T18:51:00.819Z,24.10
2022-08-25T18:53:37.182Z,24.00
2022-08-25T18:56:16.414Z,24.10
2022-08-25T18:58:43.341Z,24.00
2022-08-25T19:01:14.506Z,24.00
2022-08-25T19:03:43.126Z,23.90
2022-08-25T19:06:11.289Z,23.90
2022-08-25T19:08:41.824Z,23.90
2022-08-25T19:11:10.020Z,23.90
2022-08-25T19:13:38.203Z,23.80
2022-08-25T19:16:20.454Z,23.80
2022-08-25T19:18:48.868Z,23.90
2022-08-25T19:21:22.509Z,23.90
2022-08-25T19:23:51.363Z,23.90
2022-08-25T19:26:20.251Z,23.90
2022-08-25T19:28:49.483Z,23.80
2022-08-25T19:31:27.517Z,23.80
2022-08-25T19:34:01.193Z,23.80
2022-08-25T19:36:29.981Z,23.80
2022-08-25T19:39:01.472Z,23.70
2022-08-25T19:41:31.348Z,23.70
2022-08-25T19:43:59.552Z,23.70
2022-08-25T19:46:35.820Z,23.80
2022-08-25T19:49:08.432Z,23.70
2022-08-25T19:51:38.834Z,23.60
2022-08-25T19:54:09.059Z,23.60
2022-08-25T19:56:43.912Z,23.60
2022-08-25T19:59:23.137Z,23.60
2022-08-25T20:01:50.546Z,23.60
2022-08-25T20:04:17.748Z,23.60
2022-08-25T20:06:48.316Z,23.40
2022-08-25T20:09:35.573Z,23.20
2022-08-25T20:12:06.323Z,23.20
2022-08-25T20:14:34.004Z,23.20
2022-08-25T20:17:23.882Z,23.20
2022-08-25T20:19:57.297Z,23.30
2022-08-25T20:22:26.909Z,23.20
2022-08-25T20:25:01.536Z,23.20
2022-08-25T20:27:35.690Z,23.10
2022-08-25T20:30:07.901Z,22.90
2022-08-25T20:32:35.707Z,22.90
2022-08-25T20:35:04.981Z,23.00
2022-08-25T20:37:36.374Z,23.00
2022-08-25T20:40:04.147Z,22.90
2022-08-25T20:42:31.521Z,23.00
2022-08-25T20:44:59.110Z,23.00
2022-08-25T20:47:26.389Z,22.90
2022-08-25T20:49:53.356Z,22.90
2022-08-25T20:52:20.943Z,22.90
2022-08-25T20:54:50.360Z,22.90
2022-08-25T20:57:25.724Z,22.90
2022-08-25T20:59:54.892Z,22.90
2022-08-25T21:02:23.697Z,23.00
2022-08-25T21:04:51.688Z,23.00
2022-08-25T21:07:20.483Z,23.00
2022-08-25T21:09:47.909Z,22.90
2022-08-25T21:12:15.372Z,22.90
2022-08-25T21:14:42.682Z,22.90
2022-08-25T21:17:14.462Z,23.00
2022-08-25T21:19:42.476Z,23.10
2022-08-25T21:22:10.818Z,23.00
2022-08-25T21:24:38.498Z,23.00
2022-08-25T21:27:06.249Z,23.00
2022-08-25T21:29:33.481Z,23.10
2022-08-25T21:32:00.808Z,23.10
2022-08-25T21:34:28.999Z,23.10
2022-08-25T21:36:58.099Z,23.10
2022-08-25T21:39:27.585Z,23.10
2022-08-25T21:41:55.264Z,23.00
2022-08-25T21:44:22.453Z,22.90
2022-08-25T21:46:53.897Z,22.90
2022-08-25T21:49:23.202Z,22.80
2022-08-25T21:52:03.261Z,22.80
2022-08-25T21:54:31.607Z,22.70
2022-08-25T21:57:05.160Z,22.70
2022-08-25T21:59:35.894Z,22.70
2022-08-25T22:02:10.157Z,22.70
2022-08-25T22:04:39.339Z,22.70
2022-08-25T22:07:08.080Z,22.60
2022-08-25T22:09:35.746Z,22.60
2022-08-25T22:12:03.922Z,22.60
2022-08-25T22:14:31.106Z,22.60
2022-08-25T22:16:58.207Z,22.60
2022-08-25T22:19:27.114Z,22.60
2022-08-25T22:21:55.151Z,22.60
2022-08-25T22:24:23.103Z,22.60
2022-08-25T22:26:56.167Z,22.60
2022-08-25T22:29:25.417Z,22.60
2022-08-25T22:31:59.998Z,22.60
2022-08-25T22:34:32.443Z,22.50
2022-08-25T22:37:00.843Z,22.50
2022-08-25T22:39:29.386Z,22.50
2022-08-25T22:41:56.677Z,22.50
2022-08-25T22:44:25.661Z,22.40
2022-08-25T22:46:53.439Z,22.40
2022-08-25T22:49:21.134Z,22.40
2022-08-25T22:51:48.193Z,22.40
2022-08-25T22:54:16.626Z,22.40
2022-08-25T22:56:43.782Z,22.40
2022-08-25T22:59:13.091Z,22.40
2022-08-25T23:01:43.111Z,22.40
2022-08-25T23:04:10.916Z,22.30
2022-08-25T23:06:38.266Z,22.30
2022-08-25T23:09:07.913Z,22.40
2022-08-25T23:11:35.913Z,22.30
2022-08-25T23:14:08.339Z,22.30
2022-08-25T23:16:35.976Z,22.30
2022-08-25T23:19:03.011Z,22.30
2022-08-25T23:21:48.482Z,22.30
2022-08-25T23:24:29.325Z,22.30
2022-08-25T23:27:03.730Z,22.30
2022-08-25T23:29:31.905Z,22.20
2022-08-25T23:31:58.928Z,22.20
2022-08-25T23:34:26.820Z,22.20
2022-08-25T23:36:55.892Z,22.30
2022-08-25T23:39:23.109Z,22.20
2022-08-25T23:41:50.682Z,22.20
2022-08-25T23:44:18.994Z,22.20
2022-08-25T23:46:47.680Z,22.20
2022-08-25T23:49:18.419Z,22.20
2022-08-25T23:51:48.643Z,22.20
2022-08-25T23:54:16.804Z,22.20
2022-08-25T23:56:51.619Z,22.20
2022-08-25T23:59:24.723Z,22.20
